Time;durP1;ratioP1;P1;durP2;ratioP2;P2;SDS_P1;SDS_P2;PMS_P1;PMS_P2;Temp;Humidity;BMP_temperature;BMP_pressure;BME280_temperature;BME280_humidity;BME280_pressure;Samples;Min_cycle;Max_cycle;Signal;HPM_P1;HPM_P2
2021/01/08 00:01:08;;;;;;;56.50;27.60;;;;;;;1.16;74.15;98648.26;119960;1151;104427;-70
2021/01/08 00:03:40;;;;;;;54.77;26.53;;;;;;;1.14;74.16;98641.39;119799;1151;104457;-72
2021/01/08 00:06:08;;;;;;;49.77;26.07;;;;;;;1.17;74.41;98643.89;120122;1151;104398;-71
2021/01/08 00:08:34;;;;;;;50.73;25.13;;;;;;;1.16;73.97;98640.40;120082;1150;104566;-71
2021/01/08 00:11:06;;;;;;;48.95;25.25;;;;;;;1.16;74.13;98629.08;120149;1151;104327;-70
2021/01/08 00:13:34;;;;;;;42.20;22.33;;;;;;;1.18;74.09;98627.25;120098;1150;104477;-70
2021/01/08 00:16:01;;;;;;;49.20;23.40;;;;;;;1.21;74.02;98634.98;120553;1151;104455;-71
2021/01/08 00:18:28;;;;;;;46.20;22.63;;;;;;;1.23;73.85;98629.67;120129;1151;104467;-71
2021/01/08 00:20:55;;;;;;;46.93;23.70;;;;;;;1.24;74.08;98631.38;120011;1151;104464;-71
2021/01/08 00:23:23;;;;;;;46.03;22.43;;;;;;;1.28;73.92;98630.34;120117;1151;104433;-74
2021/01/08 00:25:55;;;;;;;44.50;22.37;;;;;;;1.28;74.18;98625.09;120092;1151;104467;-70
2021/01/08 00:28:22;;;;;;;41.00;20.77;;;;;;;1.29;73.92;98627.64;119993;1151;104348;-72
2021/01/08 00:30:49;;;;;;;42.40;21.07;;;;;;;1.30;74.43;98629.34;120070;1151;104479;-71
2021/01/08 00:33:19;;;;;;;43.73;22.57;;;;;;;1.32;74.13;98635.38;120003;1151;104449;-70
2021/01/08 00:35:46;;;;;;;40.23;20.83;;;;;;;1.34;73.62;98637.95;120014;1150;104372;-70
2021/01/08 00:38:13;;;;;;;39.10;20.90;;;;;;;1.33;73.96;98642.31;120037;1151;104497;-71
2021/01/08 00:40:40;;;;;;;38.67;20.37;;;;;;;1.33;73.78;98642.31;119958;1151;104426;-71
2021/01/08 00:43:07;;;;;;;41.23;20.00;;;;;;;1.31;74.03;98640.69;120054;1151;104351;-71
2021/01/08 00:45:34;;;;;;;40.40;20.40;;;;;;;1.31;73.98;98645.93;119959;1153;104518;-70
2021/01/08 00:48:02;;;;;;;39.53;20.03;;;;;;;1.31;73.87;98643.31;119905;1151;104422;-71
2021/01/08 00:50:29;;;;;;;41.90;20.37;;;;;;;1.29;74.08;98648.59;120028;1151;104525;-71
2021/01/08 00:52:56;;;;;;;40.97;21.43;;;;;;;1.32;73.79;98658.12;120044;1151;104378;-71
2021/01/08 00:55:22;;;;;;;40.67;19.70;;;;;;;1.33;73.30;98647.56;119909;1151;104576;-71
2021/01/08 00:57:50;;;;;;;38.60;19.63;;;;;;;1.31;73.93;98657.25;120018;1151;104473;-70
2021/01/08 01:00:17;;;;;;;39.97;19.93;;;;;;;1.29;73.67;98668.73;120043;1151;104507;-71
2021/01/08 01:02:44;;;;;;;40.60;20.88;;;;;;;1.28;73.61;98662.62;120040;1151;104351;-71
2021/01/08 01:05:12;;;;;;;41.45;20.12;;;;;;;1.30;73.84;98662.57;120726;1151;104426;-70
2021/01/08 01:07:39;;;;;;;41.47;20.37;;;;;;;1.29;74.08;98661.70;119957;1150;104453;-70
2021/01/08 01:10:09;;;;;;;40.43;19.77;;;;;;;1.30;73.64;98666.03;120080;1150;104846;-70
2021/01/08 01:12:36;;;;;;;41.57;19.07;;;;;;;1.31;73.11;98675.59;119975;1151;104528;-69
2021/01/08 01:15:05;;;;;;;41.85;19.98;;;;;;;1.30;74.03;98678.30;119972;1151;104529;-70
2021/01/08 01:17:40;;;;;;;41.37;19.60;;;;;;;1.30;74.00;98671.27;120287;1151;104403;-70
2021/01/08 01:20:12;;;;;;;42.53;19.70;;;;;;;1.32;73.65;98669.44;119966;1151;104513;-70
2021/01/08 01:22:39;;;;;;;40.20;19.13;;;;;;;1.32;74.00;98679.08;120329;1151;103079;-70
2021/01/08 01:25:08;;;;;;;39.20;19.10;;;;;;;1.32;73.47;98679.08;120040;1151;104651;-70
2021/01/08 01:27:38;;;;;;;36.67;19.73;;;;;;;1.30;73.65;98675.67;120091;1151;104430;-70
2021/01/08 01:30:08;;;;;;;38.30;18.43;;;;;;;1.28;73.72;98678.34;120073;1151;104375;-71
2021/01/08 01:32:36;;;;;;;39.63;19.77;;;;;;;1.28;73.60;98683.58;120505;1151;104415;-70
2021/01/08 01:35:05;;;;;;;41.43;18.57;;;;;;;1.27;73.59;98681.87;120134;1151;104372;-70
2021/01/08 01:37:33;;;;;;;38.27;18.87;;;;;;;1.27;73.48;98681.87;120016;1151;104515;-68
2021/01/08 01:40:04;;;;;;;37.73;19.80;;;;;;;1.28;73.64;98677.50;120031;1151;104450;-68
2021/01/08 01:42:31;;;;;;;38.30;19.10;;;;;;;1.29;73.60;98679.20;120025;1151;104351;-71
2021/01/08 01:44:58;;;;;;;39.10;18.97;;;;;;;1.26;73.67;98676.70;119980;1151;104491;-68
2021/01/08 01:47:28;;;;;;;40.97;20.97;;;;;;;1.27;73.49;98681.03;119917;1151;104452;-70
2021/01/08 01:49:57;;;;;;;41.50;20.63;;;;;;;1.26;73.81;98679.33;119988;1151;104473;-70
2021/01/08 01:52:24;;;;;;;45.53;19.90;;;;;;;1.28;73.63;98677.50;120831;1150;104350;-71
2021/01/08 01:54:51;;;;;;;49.07;22.63;;;;;;;1.29;74.06;98672.19;119990;1151;104355;-73
2021/01/08 01:57:18;;;;;;;41.92;20.80;;;;;;;1.32;73.60;98682.55;120039;1151;104448;-71
2021/01/08 01:59:46;;;;;;;44.60;20.70;;;;;;;1.34;73.54;98678.09;119995;1151;104426;-71
2021/01/08 02:02:22;;;;;;;42.33;20.23;;;;;;;1.35;73.78;98681.58;119991;1151;104414;-71
2021/01/08 02:04:57;;;;;;;43.95;20.35;;;;;;;1.33;73.41;98681.63;120406;1151;104423;-70
2021/01/08 02:07:29;;;;;;;41.03;20.17;;;;;;;1.35;73.70;98673.72;120025;1151;104422;-71
2021/01/08 02:09:58;;;;;;;40.57;18.80;;;;;;;1.36;73.44;98671.94;120023;1151;104423;-70
2021/01/08 02:12:29;;;;;;;40.27;18.60;;;;;;;1.33;72.86;98663.28;120266;1151;104332;-68
2021/01/08 02:14:58;;;;;;;41.10;20.07;;;;;;;1.34;73.57;98666.77;119932;1151;104604;-71
2021/01/08 02:17:28;;;;;;;41.63;19.33;;;;;;;1.32;73.37;98651.09;119993;1151;104358;-69
2021/01/08 02:20:05;;;;;;;39.33;20.30;;;;;;;1.37;73.26;98650.92;119995;1151;104375;-69
2021/01/08 02:22:40;;;;;;;42.07;20.40;;;;;;;1.35;73.49;98652.75;120058;1151;104487;-68
2021/01/08 02:25:19;;;;;;;39.15;19.35;;;;;;;1.34;73.27;98658.91;120125;1151;104860;-69
2021/01/08 02:28:04;;;;;;;42.67;21.30;;;;;;;1.34;73.37;98659.75;120011;1151;104396;-69
2021/01/08 02:30:34;;;;;;;37.43;19.73;;;;;;;1.34;73.36;98661.53;119890;1151;104369;-70
2021/01/08 02:33:04;;;;;;;44.43;21.33;;;;;;;1.36;73.36;98654.45;120000;1151;104358;-70
2021/01/08 02:35:35;;;;;;;42.33;21.10;;;;;;;1.36;73.16;98653.59;120114;1151;104393;-71
2021/01/08 02:38:05;;;;;;;42.10;20.65;;;;;;;1.37;73.48;98650.92;119981;1151;104445;-71
2021/01/08 02:40:33;;;;;;;42.73;20.93;;;;;;;1.40;73.51;98650.80;119917;1150;104461;-71
2021/01/08 02:43:03;;;;;;;40.75;22.25;;;;;;;1.39;73.85;98648.22;120127;1151;104564;-69
2021/01/08 02:45:32;;;;;;;43.30;20.77;;;;;;;1.38;73.32;98646.52;120006;1151;104387;-70
2021/01/08 02:47:59;;;;;;;41.30;20.47;;;;;;;1.36;73.40;98643.98;120220;1151;104357;-70
2021/01/08 02:50:27;;;;;;;37.90;18.77;;;;;;;1.35;73.55;98642.27;120020;1151;104385;-69
2021/01/08 02:53:03;;;;;;;38.10;20.10;;;;;;;1.33;73.36;98644.10;120024;1151;104499;-70
2021/01/08 02:55:35;;;;;;;40.37;19.63;;;;;;;1.29;73.13;98639.91;119991;1151;104385;-70
2021/01/08 02:58:04;;;;;;;42.90;20.47;;;;;;;1.29;73.25;98653.84;120008;1151;104391;-70
2021/01/08 03:00:33;;;;;;;42.05;20.75;;;;;;;1.29;73.48;98648.59;120006;1151;104429;-70
2021/01/08 03:03:04;;;;;;;38.77;19.53;;;;;;;1.30;73.17;98642.44;120092;1151;104428;-68
2021/01/08 03:05:34;;;;;;;42.80;20.80;;;;;;;1.30;73.18;98646.84;120080;1151;104497;-70
2021/01/08 03:08:02;;;;;;;39.93;18.93;;;;;;;1.31;73.29;98641.53;119984;1151;104381;-70
2021/01/08 03:10:32;;;;;;;45.03;21.13;;;;;;;1.30;73.47;98646.84;120069;1151;104878;-69
2021/01/08 03:13:03;;;;;;;40.20;19.90;;;;;;;1.27;73.19;98644.35;120031;1151;104429;-68
2021/01/08 03:15:32;;;;;;;39.83;20.27;;;;;;;1.28;73.39;98644.27;119975;1151;104408;-70
2021/01/08 03:18:02;;;;;;;35.17;18.17;;;;;;;1.30;73.14;98638.98;120119;1151;104518;-71
2021/01/08 03:20:29;;;;;;;44.00;21.50;;;;;;;1.32;73.32;98645.02;121014;1151;102475;-70
2021/01/08 03:22:56;;;;;;;42.43;20.50;;;;;;;1.32;73.32;98645.86;119993;1151;104454;-70
2021/01/08 03:25:23;;;;;;;40.03;18.80;;;;;;;1.34;73.41;98645.80;119992;1151;104451;-70
2021/01/08 03:27:50;;;;;;;44.10;20.12;;;;;;;1.31;72.86;98641.53;119978;1151;104567;-70
2021/01/08 03:30:19;;;;;;;41.77;20.63;;;;;;;1.29;73.49;98639.91;119932;1151;104452;-69
2021/01/08 03:32:47;;;;;;;36.93;18.10;;;;;;;1.27;72.74;98639.11;120581;1151;104398;-69
2021/01/08 03:35:14;;;;;;;41.43;19.57;;;;;;;1.27;73.14;98639.11;120601;1151;104397;-69
2021/01/08 03:37:42;;;;;;;38.80;18.33;;;;;;;1.27;72.84;98639.95;119972;1151;104427;-70
2021/01/08 03:40:09;;;;;;;36.40;16.23;;;;;;;1.26;73.13;98645.27;119997;1151;104454;-70
2021/01/08 03:42:36;;;;;;;37.70;19.80;;;;;;;1.26;73.13;98640.03;120002;1151;104505;-69
2021/01/08 03:45:06;;;;;;;41.20;18.43;;;;;;;1.28;72.68;98646.89;120065;1151;104451;-69
2021/01/08 03:47:34;;;;;;;40.37;19.17;;;;;;;1.26;72.99;98645.27;120692;1151;104409;-69
2021/01/08 03:50:03;;;;;;;39.10;19.77;;;;;;;1.26;72.95;98655.75;120236;1151;104403;-70
2021/01/08 03:52:30;;;;;;;36.87;18.53;;;;;;;1.27;72.75;98655.67;120344;1151;104364;-71
2021/01/08 03:54:57;;;;;;;37.95;17.75;;;;;;;1.29;72.86;98653.84;120014;1151;104540;-70
2021/01/08 03:57:25;;;;;;;38.58;18.40;;;;;;;1.30;73.17;98649.47;120014;1150;104461;-72
2021/01/08 03:59:53;;;;;;;37.53;17.43;;;;;;;1.30;72.96;98658.17;120049;1151;104370;-70
2021/01/08 04:02:20;;;;;;;37.60;17.47;;;;;;;1.31;72.84;98659.03;120401;1151;104493;-69
2021/01/08 04:04:51;;;;;;;36.97;17.70;;;;;;;1.32;72.95;98643.23;119989;1151;104375;-70
2021/01/08 04:07:18;;;;;;;33.53;15.72;;;;;;;1.32;72.67;98645.86;121015;1151;104346;-69
2021/01/08 04:09:44;;;;;;;35.17;15.77;;;;;;;1.33;72.62;98639.70;119983;1151;104355;-70
2021/01/08 04:12:16;;;;;;;36.83;15.77;;;;;;;1.32;72.58;98643.23;120024;1151;104426;-71
2021/01/08 04:14:43;;;;;;;35.33;16.47;;;;;;;1.34;72.59;98651.05;120066;1151;104450;-70
2021/01/08 04:17:10;;;;;;;32.70;15.15;;;;;;;1.32;73.20;98645.02;120000;1151;104493;-70
2021/01/08 04:19:40;;;;;;;34.17;15.37;;;;;;;1.34;72.39;98646.64;120064;1152;104582;-70
2021/01/08 04:22:08;;;;;;;31.10;14.35;;;;;;;1.37;73.14;98644.81;120012;1151;104377;-70
2021/01/08 04:24:35;;;;;;;37.70;16.75;;;;;;;1.34;73.42;98641.41;120125;1151;104544;-70
2021/01/08 04:27:05;;;;;;;41.40;18.05;;;;;;;1.36;72.56;98643.98;120032;1151;104519;-70
2021/01/08 04:29:32;;;;;;;33.40;15.87;;;;;;;1.37;73.10;98643.06;120052;1151;104468;-70
2021/01/08 04:31:59;;;;;;;36.03;16.70;;;;;;;1.34;72.74;98637.95;120040;1151;104372;-70
2021/01/08 04:34:27;;;;;;;42.67;19.03;;;;;;;1.33;72.73;98644.10;119993;1151;104425;-70
2021/01/08 04:36:54;;;;;;;36.97;17.87;;;;;;;1.31;72.76;98643.31;120057;1150;104351;-70
2021/01/08 04:39:21;;;;;;;40.03;18.67;;;;;;;1.31;72.22;98656.41;120929;1151;104350;-69
2021/01/08 04:41:49;;;;;;;38.30;18.60;;;;;;;1.30;72.64;98641.61;120060;1151;104423;-70
2021/01/08 04:44:18;;;;;;;40.97;19.00;;;;;;;1.31;72.37;98643.31;120062;1151;104447;-69
2021/01/08 04:46:52;;;;;;;43.23;20.23;;;;;;;1.31;72.76;98646.77;120096;1151;104359;-71
2021/01/08 04:49:20;;;;;;;41.63;19.57;;;;;;;1.29;72.78;98648.59;120016;1151;104437;-71
2021/01/08 04:51:51;;;;;;;47.87;22.17;;;;;;;1.28;72.70;98644.27;120154;1151;104355;-72
2021/01/08 04:54:19;;;;;;;46.50;20.37;;;;;;;1.27;72.63;98646.97;120025;1151;104357;-70
2021/01/08 04:56:48;;;;;;;62.27;25.70;;;;;;;1.22;72.42;98649.80;121620;1151;103175;-70
2021/01/08 04:59:17;;;;;;;71.33;28.47;;;;;;;1.21;72.82;98645.47;120570;1151;104426;-70
2021/01/08 05:01:48;;;;;;;61.47;25.30;;;;;;;1.23;72.28;98642.77;120165;1152;104451;-69
2021/01/08 05:04:16;;;;;;;50.57;21.53;;;;;;;1.24;72.83;98644.48;120095;1151;104447;-70
2021/01/08 05:06:46;;;;;;;39.30;18.63;;;;;;;1.23;72.61;98646.23;120193;1151;104422;-70
2021/01/08 05:09:14;;;;;;;35.60;16.30;;;;;;;1.23;72.72;98642.77;120059;1150;104593;-71
2021/01/08 05:11:47;;;;;;;39.78;17.67;;;;;;;1.22;72.57;98654.17;120105;1151;104419;-70
2021/01/08 05:14:19;;;;;;;28.35;11.83;;;;;;;1.22;72.25;98654.17;120136;1149;104364;-71
2021/01/08 05:16:46;;;;;;;35.20;14.93;;;;;;;1.22;72.35;98652.41;120125;1151;104821;-69
2021/01/08 05:19:23;;;;;;;34.37;14.63;;;;;;;1.24;72.69;98652.34;120152;1151;104457;-70
2021/01/08 05:21:56;;;;;;;34.60;14.87;;;;;;;1.22;72.47;98651.55;120054;1151;104513;-69
2021/01/08 05:24:24;;;;;;;31.60;14.63;;;;;;;1.21;72.47;98648.09;120082;1151;104422;-69
2021/01/08 05:26:51;;;;;;;32.40;14.37;;;;;;;1.23;72.46;98651.47;120005;1153;104847;-69
2021/01/08 05:29:30;;;;;;;33.45;14.65;;;;;;;1.26;72.40;98647.89;120162;1151;104426;-68
2021/01/08 05:31:57;;;;;;;33.97;15.47;;;;;;;1.27;72.63;98650.43;120108;1153;104380;-69
2021/01/08 05:34:29;;;;;;;32.07;14.80;;;;;;;1.27;72.23;98652.21;120112;1151;104349;-70
2021/01/08 05:36:59;;;;;;;35.27;16.13;;;;;;;1.27;72.61;98660.91;120089;1150;104357;-69
2021/01/08 05:39:27;;;;;;;32.80;15.07;;;;;;;1.29;72.43;98660.86;119947;1151;104452;-70
2021/01/08 05:41:55;;;;;;;31.23;13.83;;;;;;;1.28;72.52;98653.92;120315;1151;104416;-71
2021/01/08 05:44:26;;;;;;;33.40;15.40;;;;;;;1.27;72.02;98662.70;119952;1151;104380;-69
2021/01/08 05:46:58;;;;;;;32.70;14.80;;;;;;;1.26;72.32;98667.06;119976;1151;104404;-70
2021/01/08 05:49:32;;;;;;;34.57;15.27;;;;;;;1.26;72.05;98668.85;120001;1151;104433;-71
2021/01/08 05:52:02;;;;;;;37.48;16.90;;;;;;;1.23;72.58;98667.19;120099;1151;104459;-71
2021/01/08 05:54:35;;;;;;;39.17;17.47;;;;;;;1.23;72.00;98667.19;120660;1110;104349;-70
2021/01/08 05:57:03;;;;;;;36.47;17.20;;;;;;;1.23;72.07;98671.59;120965;1151;104433;-71
2021/01/08 05:59:30;;;;;;;36.70;16.90;;;;;;;1.22;72.40;98681.23;120413;1151;104499;-68
2021/01/08 06:01:59;;;;;;;41.23;18.37;;;;;;;1.21;71.63;98676.91;119912;1151;104391;-69
2021/01/08 06:04:30;;;;;;;35.20;15.90;;;;;;;1.22;72.27;98675.99;119859;1151;104486;-68
2021/01/08 06:06:57;;;;;;;35.87;15.27;;;;;;;1.25;72.24;98686.33;120693;1149;104362;-70
2021/01/08 06:09:30;;;;;;;37.37;16.47;;;;;;;1.26;72.50;98685.41;120154;1151;104468;-70
2021/01/08 06:11:59;;;;;;;36.43;16.43;;;;;;;1.25;72.30;98683.70;120014;1151;104905;-70
2021/01/08 06:14:27;;;;;;;39.03;17.73;;;;;;;1.25;72.06;98685.48;119935;1151;104465;-70
2021/01/08 06:16:58;;;;;;;38.53;17.67;;;;;;;1.24;72.07;98686.40;120372;1151;104351;-71
2021/01/08 06:19:30;;;;;;;41.73;18.40;;;;;;;1.23;72.21;98680.29;119956;1151;104360;-65
2021/01/08 06:21:59;;;;;;;44.00;17.55;;;;;;;1.23;71.95;98688.15;121311;1151;101866;-69
2021/01/08 06:24:31;;;;;;;39.13;17.67;;;;;;;1.25;72.15;98690.73;119929;1151;104651;-69
2021/01/08 06:27:01;;;;;;;39.33;16.77;;;;;;;1.26;71.97;98689.81;119780;1151;104354;-68
2021/01/08 06:29:34;;;;;;;37.00;17.70;;;;;;;1.26;72.25;98690.65;119841;1151;104457;-69
2021/01/08 06:32:16;;;;;;;38.33;17.23;;;;;;;1.30;72.11;98686.16;120361;1151;104451;-67
2021/01/08 06:34:50;;;;;;;38.45;15.85;;;;;;;1.33;72.13;98691.27;119864;1151;104466;-68
2021/01/08 06:37:37;;;;;;;37.60;17.93;;;;;;;1.33;72.16;98692.11;120028;1151;104554;-68
2021/01/08 06:40:11;;;;;;;38.53;16.73;;;;;;;1.37;71.86;98695.47;119881;1151;104487;-68
2021/01/08 06:42:45;;;;;;;37.25;15.88;;;;;;;1.40;72.05;98694.48;119895;1151;104455;-68
2021/01/08 06:45:16;;;;;;;33.57;16.43;;;;;;;1.41;72.19;98691.81;120654;1151;104453;-69
2021/01/08 06:47:48;;;;;;;37.30;18.53;;;;;;;1.43;72.10;98702.22;120223;1151;104380;-69
2021/01/08 06:50:19;;;;;;;;;;;;;;;1.44;71.38;98701.30;121253;1151;102771;-70
2021/01/08 06:52:53;;;;;;;30.43;12.93;;;;;;;1.43;72.04;98695.20;120319;1151;104482;-70
2021/01/08 06:55:24;;;;;;;31.20;13.27;;;;;;;1.43;71.35;98695.20;120034;1151;104455;-69
2021/01/08 06:58:00;;;;;;;33.97;14.47;;;;;;;1.44;71.33;98690.82;120029;1151;104448;-69
2021/01/08 07:00:31;;;;;;;32.90;14.37;;;;;;;1.45;71.98;98697.77;119960;1151;104398;-69
2021/01/08 07:03:05;;;;;;;27.00;12.70;;;;;;;1.47;72.18;98695.94;119857;1151;104458;-69
2021/01/08 07:05:36;;;;;;;30.00;13.43;;;;;;;1.48;72.02;98698.48;119866;1151;104423;-70
2021/01/08 07:08:06;;;;;;;27.53;12.83;;;;;;;1.49;71.86;98688.87;119982;1151;104474;-67
2021/01/08 07:10:37;;;;;;;29.73;13.03;;;;;;;1.50;71.69;98698.44;120355;1151;104428;-70
2021/01/08 07:13:04;;;;;;;30.57;13.23;;;;;;;1.50;71.60;98698.44;119935;1151;104448;-70
2021/01/08 07:15:36;;;;;;;34.43;15.67;;;;;;;1.52;72.14;98707.09;119961;1151;104860;-68
2021/01/08 07:18:06;;;;;;;31.63;13.97;;;;;;;1.55;71.82;98706.09;119957;1151;104404;-69
2021/01/08 07:20:33;;;;;;;28.63;13.13;;;;;;;1.56;71.90;98694.70;119976;1151;104455;-68
2021/01/08 07:23:27;;;;;;;30.37;14.53;;;;;;;1.58;71.84;98705.97;120951;1151;103539;-67
2021/01/08 07:25:55;;;;;;;27.10;12.53;;;;;;;1.58;71.23;98696.35;119862;1151;104564;-69
2021/01/08 07:28:25;;;;;;;28.63;13.03;;;;;;;1.60;71.98;98697.14;120366;1151;104591;-70
2021/01/08 07:31:09;;;;;;;26.43;13.13;;;;;;;1.62;71.46;98697.94;119904;1151;104361;-68
2021/01/08 07:33:47;;;;;;;27.57;12.20;;;;;;;1.63;71.75;98698.77;119897;1151;104400;-68
2021/01/08 07:36:24;;;;;;;29.30;13.20;;;;;;;1.65;71.90;98704.80;119896;1151;104375;-69
2021/01/08 07:38:53;;;;;;;31.53;13.10;;;;;;;1.67;71.55;98700.34;119851;1151;104583;-69
2021/01/08 07:41:33;;;;;;;33.87;14.77;;;;;;;1.69;71.45;98705.52;120021;1151;104430;-69
2021/01/08 07:44:02;;;;;;;32.40;15.67;;;;;;;1.69;72.14;98706.37;119814;1151;104454;-69
2021/01/08 07:46:34;;;;;;;34.77;17.30;;;;;;;1.71;71.72;98712.41;120676;1151;104449;-70
2021/01/08 07:49:03;;;;;;;35.17;17.33;;;;;;;1.73;71.43;98720.20;119888;1151;104455;-70
2021/01/08 07:51:44;;;;;;;39.20;20.43;;;;;;;1.74;71.72;98719.28;120000;1151;104449;-69
2021/01/08 07:54:13;;;;;;;48.37;25.43;;;;;;;1.73;71.45;98714.96;120391;1151;104482;-69
2021/01/08 07:57:04;;;;;;;44.00;20.83;;;;;;;1.76;71.86;98722.70;119774;1151;104358;-69
2021/01/08 07:59:31;;;;;;;41.45;19.80;;;;;;;1.76;71.42;98720.08;119897;1151;104380;-70
2021/01/08 08:01:58;;;;;;;40.43;21.37;;;;;;;1.77;71.30;98719.16;119833;1151;104396;-69
2021/01/08 08:04:28;;;;;;;41.30;20.77;;;;;;;1.76;71.77;98717.45;120181;1151;104402;-69
2021/01/08 08:06:56;;;;;;;38.20;19.10;;;;;;;1.77;71.57;98720.03;119903;1151;104397;-69
2021/01/08 08:09:28;;;;;;;38.40;18.33;;;;;;;1.78;71.49;98718.24;120010;1151;104380;-70
2021/01/08 08:11:57;;;;;;;42.20;21.23;;;;;;;1.80;71.33;98713.78;119909;1151;104561;-68
2021/01/08 08:14:24;;;;;;;41.73;21.00;;;;;;;1.81;71.22;98712.87;120434;1151;104428;-70
2021/01/08 08:16:51;;;;;;;39.93;18.90;;;;;;;1.82;71.79;98714.58;119971;1151;104383;-70
2021/01/08 08:19:32;;;;;;;39.13;18.73;;;;;;;1.82;71.17;98714.58;119863;1151;104360;-69
2021/01/08 08:21:59;;;;;;;33.23;17.07;;;;;;;1.84;71.82;98717.98;119865;1151;104381;-70
2021/01/08 08:24:28;;;;;;;34.33;16.60;;;;;;;1.85;72.05;98717.07;119806;1151;104426;-68
2021/01/08 08:26:55;;;;;;;41.70;18.30;;;;;;;1.88;71.76;98716.94;119938;1149;104399;-71
2021/01/08 08:29:23;;;;;;;35.97;16.83;;;;;;;1.90;72.06;98719.48;119795;1151;104360;-70
2021/01/08 08:31:53;;;;;;;40.27;18.17;;;;;;;1.91;71.09;98715.94;119892;1151;104535;-72
2021/01/08 08:34:31;;;;;;;44.60;19.57;;;;;;;1.93;70.86;98724.60;120341;1151;104357;-70
2021/01/08 08:37:07;;;;;;;45.23;17.37;;;;;;;1.97;71.04;98722.72;119941;1151;104407;-69
2021/01/08 08:39:35;;;;;;;45.43;18.80;;;;;;;1.98;71.05;98729.67;119873;1151;104402;-70
2021/01/08 08:42:04;;;;;;;42.73;19.33;;;;;;;2.00;71.67;98719.97;120500;1151;104850;-70
2021/01/08 08:44:42;;;;;;;44.80;21.60;;;;;;;2.02;71.57;98723.38;120113;1151;104500;-67
2021/01/08 08:47:11;;;;;;;40.17;18.70;;;;;;;2.08;70.78;98720.45;120045;1151;104442;-72
2021/01/08 08:49:41;;;;;;;44.97;21.77;;;;;;;2.12;70.96;98727.28;119804;1151;104415;-71
2021/01/08 08:52:08;;;;;;;43.67;19.63;;;;;;;2.15;71.02;98724.53;119885;1151;104364;-72
2021/01/08 08:54:40;;;;;;;42.77;18.93;;;;;;;2.18;71.09;98728.80;119862;1151;104429;-70
2021/01/08 08:57:14;;;;;;;42.67;18.07;;;;;;;2.21;71.08;98726.05;119877;1151;104461;-69
2021/01/08 08:59:43;;;;;;;40.30;19.20;;;;;;;2.25;71.16;98727.59;119887;1151;104417;-70
2021/01/08 09:02:30;;;;;;;42.10;21.70;;;;;;;2.30;71.64;98728.24;119684;1148;104534;-70
2021/01/08 09:05:02;;;;;;;46.27;22.37;;;;;;;2.33;71.23;98725.48;119782;1151;104449;-68
2021/01/08 09:07:54;;;;;;;42.53;21.70;;;;;;;2.41;71.55;98719.05;120810;1151;104409;-72
2021/01/08 09:10:28;;;;;;;46.83;23.27;;;;;;;2.47;71.14;98722.23;120616;1151;104460;-71
2021/01/08 09:13:15;;;;;;;64.95;32.33;;;;;;;2.55;71.10;98719.28;120480;1151;104598;-73
2021/01/08 09:15:49;;;;;;;63.73;33.27;;;;;;;2.63;70.95;98714.54;120088;1151;104428;-71
2021/01/08 09:18:16;;;;;;;49.20;27.10;;;;;;;2.67;71.12;98720.49;120070;1151;104428;-73
2021/01/08 09:21:13;;;;;;;52.73;27.47;;;;;;;2.73;71.21;98721.97;120112;1151;104356;-70
2021/01/08 09:23:47;;;;;;;37.43;18.07;;;;;;;2.78;71.76;98725.24;120064;1151;104540;-70
2021/01/08 09:26:20;;;;;;;40.67;19.30;;;;;;;2.74;70.92;98713.17;120066;1151;104399;-69
2021/01/08 09:28:52;;;;;;;39.17;18.57;;;;;;;2.79;71.37;98717.31;120113;1151;104376;-69
2021/01/08 09:31:41;;;;;;;37.37;17.00;;;;;;;2.82;71.36;98714.54;119842;1151;104655;-70
2021/01/08 09:34:19;;;;;;;36.17;17.63;;;;;;;2.91;71.24;98723.76;120096;1151;104380;-71
2021/01/08 09:36:52;;;;;;;34.57;16.47;;;;;;;2.95;70.82;98722.69;120029;1151;104357;-70
2021/01/08 09:39:29;;;;;;;36.50;17.13;;;;;;;3.01;71.31;98725.96;120134;1151;104407;-72
2021/01/08 09:42:02;;;;;;;33.93;17.13;;;;;;;3.09;71.27;98721.17;120001;1151;104457;-71
2021/01/08 09:44:40;;;;;;;28.55;13.45;;;;;;;3.11;70.67;98724.58;120084;1151;104355;-70
2021/01/08 09:47:13;;;;;;;28.13;13.93;;;;;;;3.12;71.38;98727.15;120046;1151;104362;-70
2021/01/08 09:49:52;;;;;;;24.83;11.60;;;;;;;3.16;71.16;98727.84;120033;1153;104496;-71
2021/01/08 09:52:33;;;;;;;28.77;13.13;;;;;;;3.16;71.25;98733.09;119961;1151;104407;-71
2021/01/08 09:55:04;;;;;;;29.97;13.13;;;;;;;3.17;71.32;98718.20;120052;1151;104492;-71
2021/01/08 09:57:35;;;;;;;27.90;13.77;;;;;;;3.20;71.04;98724.14;120028;1151;104356;-69
2021/01/08 10:00:17;;;;;;;27.53;12.13;;;;;;;3.19;71.16;98727.70;120117;1151;104853;-69
2021/01/08 10:03:05;;;;;;;29.30;13.17;;;;;;;3.20;71.33;98729.40;120008;1151;104453;-71
2021/01/08 10:05:36;;;;;;;29.50;12.90;;;;;;;3.20;70.76;98731.19;120018;1151;104950;-70
2021/01/08 10:08:20;;;;;;;27.33;11.23;;;;;;;3.21;70.98;98725.02;120063;1151;104471;-70
2021/01/08 10:10:52;;;;;;;25.13;10.70;;;;;;;3.20;71.21;98726.77;120006;1151;104412;-68
2021/01/08 10:13:25;;;;;;;25.03;10.43;;;;;;;3.22;70.97;98724.09;120090;1151;104547;-70
2021/01/08 10:15:56;;;;;;;26.40;10.90;;;;;;;3.26;70.75;98721.22;120013;1151;104490;-69
2021/01/08 10:18:26;;;;;;;21.27;8.93;;;;;;;3.26;70.97;98723.85;119939;1153;104457;-70
2021/01/08 10:21:03;;;;;;;21.17;8.63;;;;;;;3.23;70.48;98724.00;120010;1151;104419;-70
2021/01/08 10:23:36;;;;;;;21.23;8.50;;;;;;;3.19;70.45;98719.81;120000;1151;104366;-75
2021/01/08 10:26:15;;;;;;;21.60;8.60;;;;;;;3.17;71.02;98713.77;120019;1151;104455;-71
2021/01/08 10:28:48;;;;;;;20.20;8.20;;;;;;;3.20;70.78;98718.05;119918;1151;104487;-69
2021/01/08 10:31:19;;;;;;;18.97;7.43;;;;;;;3.21;70.93;98707.45;119950;1151;104351;-72
2021/01/08 10:33:47;;;;;;;26.27;11.30;;;;;;;3.26;70.37;98701.98;120049;1151;104391;-69
2021/01/08 10:36:16;;;;;;;21.10;8.50;;;;;;;3.30;70.00;98710.56;120010;1151;104366;-71
2021/01/08 10:38:43;;;;;;;20.63;8.57;;;;;;;3.32;70.06;98706.08;119970;1152;104451;-71
2021/01/08 10:41:17;;;;;;;21.90;8.37;;;;;;;3.34;70.31;98704.23;120022;1153;104511;-70
2021/01/08 10:43:49;;;;;;;21.80;7.90;;;;;;;3.36;70.14;98703.22;119938;1152;104416;-71
2021/01/08 10:46:21;;;;;;;21.10;8.10;;;;;;;3.38;70.34;98701.36;120021;1153;104384;-70
2021/01/08 10:48:50;;;;;;;27.00;10.20;;;;;;;3.39;70.33;98700.44;119976;1151;104461;-70
2021/01/08 10:51:18;;;;;;;32.30;12.77;;;;;;;3.40;70.92;98699.52;119993;1153;104365;-74
2021/01/08 10:53:45;;;;;;;28.47;10.17;;;;;;;3.45;70.38;98706.33;120049;1151;104353;-73
2021/01/08 10:56:14;;;;;;;42.97;14.23;;;;;;;3.49;70.67;98697.36;119981;1153;104402;-67
2021/01/08 10:58:42;;;;;;;30.00;13.40;;;;;;;3.52;70.29;98697.21;120018;1151;104383;-69
2021/01/08 11:01:09;;;;;;;30.60;13.13;;;;;;;3.55;70.09;98700.53;120025;1151;104397;-71
2021/01/08 11:03:37;;;;;;;29.80;13.25;;;;;;;3.55;70.37;98691.80;120029;1151;104367;-73
2021/01/08 11:06:04;;;;;;;29.67;13.20;;;;;;;3.48;70.56;98696.50;120028;1151;104506;-71
2021/01/08 11:08:31;;;;;;;26.30;11.93;;;;;;;3.48;70.27;98699.13;120085;1153;104463;-71
2021/01/08 11:10:59;;;;;;;27.85;12.85;;;;;;;3.48;70.85;98695.66;120080;1153;104452;-71
2021/01/08 11:13:26;;;;;;;28.67;13.30;;;;;;;3.49;70.69;98695.56;120125;1151;104835;-70
2021/01/08 11:15:55;;;;;;;30.27;13.40;;;;;;;3.50;70.64;98689.38;120138;1151;104367;-71
2021/01/08 11:18:22;;;;;;;29.47;13.90;;;;;;;3.52;70.98;98678.80;120032;1153;104422;-71
2021/01/08 11:20:49;;;;;;;32.90;14.63;;;;;;;3.53;70.31;98686.60;119956;1151;104570;-70
2021/01/08 11:23:16;;;;;;;30.27;15.00;;;;;;;3.54;70.31;98680.42;120035;1151;104391;-69
2021/01/08 11:25:43;;;;;;;32.60;15.18;;;;;;;3.54;70.67;98683.05;119919;1153;104550;-72